CEB901 RPLL-RPVE
Flight info
| Callsign | CEB901 |
|---|---|
| Flight time | 0h 46m |
| Altitude | 29000 |
| Route | VERDE2R VERDE W24 TAPER TAPER7B |
| Aircraft | A320/M-SDE3FGHIRWY/LB1 |
Departure
| Time | 2026-04-25 13:34 |
|---|---|
| Airport | Ninoy Aquino International Airport (RPLL) |
Arrival
| Time | 2026-04-25 14:21 |
|---|---|
| Airport | Godofredo P. Ramos Airport (RPVE) |
| Time | Latitude | Longitude | Altitude | Speed | Heading |
|---|---|---|---|---|---|
| 2026-04-25 11:39 | 14.51569 | 121.01616 | 82 ft | 0 kts | 46° |
| 2026-04-25 13:16 | 14.51560 | 121.01607 | 82 ft | 2 kts | 45° |
| 2026-04-25 13:17 | 14.51550 | 121.01595 | 82 ft | 2 kts | 46° |
| 2026-04-25 13:17 | 14.51541 | 121.01585 | 82 ft | 2 kts | 57° |
| 2026-04-25 13:17 | 14.51533 | 121.01570 | 82 ft | 2 kts | 69° |
| 2026-04-25 13:17 | 14.51529 | 121.01556 | 82 ft | 2 kts | 82° |
| 2026-04-25 13:18 | 14.51528 | 121.01540 | 82 ft | 2 kts | 94° |
| 2026-04-25 13:18 | 14.51531 | 121.01525 | 82 ft | 2 kts | 106° |
| 2026-04-25 13:18 | 14.51536 | 121.01510 | 82 ft | 2 kts | 119° |
| 2026-04-25 13:18 | 14.51545 | 121.01498 | 82 ft | 1 kts | 131° |
| 2026-04-25 13:19 | 14.51547 | 121.01495 | 82 ft | 1 kts | 135° |
| 2026-04-25 13:19 | 14.51550 | 121.01492 | 82 ft | 0 kts | 135° |
| 2026-04-25 13:21 | 14.51547 | 121.01495 | 82 ft | 2 kts | 135° |
| 2026-04-25 13:21 | 14.51528 | 121.01514 | 82 ft | 5 kts | 135° |
| 2026-04-25 13:22 | 14.51491 | 121.01553 | 82 ft | 9 kts | 134° |
| 2026-04-25 13:22 | 14.51444 | 121.01591 | 82 ft | 6 kts | 169° |
| 2026-04-25 13:22 | 14.51417 | 121.01581 | 82 ft | 7 kts | 219° |
| 2026-04-25 13:23 | 14.51287 | 121.01659 | 82 ft | 13 kts | 135° |
| 2026-04-25 13:23 | 14.51215 | 121.01733 | 82 ft | 15 kts | 135° |
| 2026-04-25 13:23 | 14.51146 | 121.01805 | 82 ft | 13 kts | 133° |
| 2026-04-25 13:23 | 14.51080 | 121.01874 | 82 ft | 9 kts | 134° |
| 2026-04-25 13:24 | 14.51061 | 121.01894 | 82 ft | 0 kts | 135° |
| 2026-04-25 13:24 | 14.51057 | 121.01899 | 82 ft | 2 kts | 135° |
| 2026-04-25 13:24 | 14.51032 | 121.01919 | 82 ft | 5 kts | 154° |
| 2026-04-25 13:25 | 14.50995 | 121.01908 | 82 ft | 6 kts | 236° |
| 2026-04-25 13:25 | 14.50964 | 121.01849 | 82 ft | 12 kts | 240° |
| 2026-04-25 13:25 | 14.50911 | 121.01754 | 82 ft | 17 kts | 240° |
| 2026-04-25 13:25 | 14.50844 | 121.01633 | 82 ft | 20 kts | 240° |
| 2026-04-25 13:26 | 14.50765 | 121.01497 | 82 ft | 20 kts | 239° |
| 2026-04-25 13:26 | 14.50694 | 121.01363 | 82 ft | 22 kts | 240° |
| 2026-04-25 13:26 | 14.50614 | 121.01215 | 82 ft | 24 kts | 240° |
| 2026-04-25 13:26 | 14.50530 | 121.01067 | 82 ft | 24 kts | 239° |
| 2026-04-25 13:27 | 14.50448 | 121.00921 | 82 ft | 23 kts | 240° |
| 2026-04-25 13:27 | 14.50370 | 121.00777 | 82 ft | 20 kts | 240° |
| 2026-04-25 13:27 | 14.50300 | 121.00652 | 82 ft | 19 kts | 240° |
| 2026-04-25 13:27 | 14.50231 | 121.00533 | 82 ft | 19 kts | 240° |
| 2026-04-25 13:28 | 14.50167 | 121.00416 | 82 ft | 16 kts | 241° |
| 2026-04-25 13:28 | 14.50148 | 121.00380 | 82 ft | 16 kts | 240° |
| 2026-04-25 13:28 | 14.50048 | 121.00202 | 82 ft | 17 kts | 239° |
| 2026-04-25 13:28 | 14.49988 | 121.00095 | 82 ft | 17 kts | 240° |
| 2026-04-25 13:29 | 14.49968 | 121.00057 | 82 ft | 0 kts | 240° |
| 2026-04-25 13:31 | 14.49965 | 121.00051 | 82 ft | 3 kts | 240° |
| 2026-04-25 13:31 | 14.49943 | 121.00012 | 82 ft | 8 kts | 241° |
| 2026-04-25 13:31 | 14.49915 | 120.99967 | 82 ft | 5 kts | 218° |
| 2026-04-25 13:31 | 14.49876 | 120.99965 | 82 ft | 3 kts | 152° |
| 2026-04-25 13:32 | 14.49851 | 120.99979 | 82 ft | 4 kts | 151° |
| 2026-04-25 13:32 | 14.49818 | 120.99999 | 82 ft | 6 kts | 144° |
| 2026-04-25 13:32 | 14.49803 | 121.00047 | 82 ft | 5 kts | 61° |
| 2026-04-25 13:32 | 14.49805 | 121.00050 | 82 ft | 0 kts | 60° |
| 2026-04-25 13:33 | 14.49805 | 121.00051 | 82 ft | 1 kts | 60° |
| 2026-04-25 13:34 | 14.50025 | 121.00449 | 82 ft | 95 kts | 59° |
| 2026-04-25 13:34 | 14.50455 | 121.01216 | 107 ft | 147 kts | 62° |
| 2026-04-25 13:34 | 14.50980 | 121.02159 | 562 ft | 151 kts | 62° |
| 2026-04-25 13:34 | 14.51514 | 121.03104 | 1097 ft | 154 kts | 62° |
| 2026-04-25 13:35 | 14.52049 | 121.04050 | 1690 ft | 155 kts | 61° |
| 2026-04-25 13:35 | 14.52601 | 121.05024 | 2174 ft | 166 kts | 60° |
| 2026-04-25 13:35 | 14.53208 | 121.06113 | 2597 ft | 182 kts | 60° |
| 2026-04-25 13:35 | 14.53835 | 121.07343 | 2990 ft | 203 kts | 69° |
| 2026-04-25 13:36 | 14.53927 | 121.08865 | 3347 ft | 230 kts | 104° |
| 2026-04-25 13:36 | 14.53102 | 121.10347 | 3914 ft | 250 kts | 134° |
| 2026-04-25 13:36 | 14.51642 | 121.11481 | 4520 ft | 267 kts | 145° |
| 2026-04-25 13:36 | 14.50021 | 121.12514 | 5247 ft | 278 kts | 147° |
| 2026-04-25 13:37 | 14.48275 | 121.13444 | 6070 ft | 282 kts | 161° |
| 2026-04-25 13:37 | 14.46325 | 121.13761 | 6635 ft | 286 kts | 174° |
| 2026-04-25 13:37 | 14.44321 | 121.13853 | 6921 ft | 287 kts | 177° |
| 2026-04-25 13:37 | 14.42292 | 121.13907 | 6994 ft | 288 kts | 177° |
| 2026-04-25 13:38 | 14.40265 | 121.13939 | 7160 ft | 294 kts | 181° |
| 2026-04-25 13:38 | 14.38202 | 121.13747 | 7957 ft | 298 kts | 186° |
| 2026-04-25 13:38 | 14.36142 | 121.13465 | 8960 ft | 297 kts | 187° |
| 2026-04-25 13:38 | 14.34070 | 121.13180 | 9821 ft | 301 kts | 187° |
| 2026-04-25 13:39 | 14.32679 | 121.12995 | 10359 ft | 303 kts | 187° |
| 2026-04-25 13:39 | 14.29792 | 121.12626 | 11056 ft | 323 kts | 187° |
| 2026-04-25 13:39 | 14.27466 | 121.12338 | 11439 ft | 341 kts | 187° |
| 2026-04-25 13:39 | 14.25058 | 121.12045 | 11789 ft | 359 kts | 187° |
| 2026-04-25 13:40 | 14.22482 | 121.11733 | 12094 ft | 377 kts | 187° |
| 2026-04-25 13:40 | 14.19822 | 121.11414 | 12540 ft | 388 kts | 187° |
| 2026-04-25 13:40 | 14.17116 | 121.11091 | 13208 ft | 391 kts | 187° |
| 2026-04-25 13:40 | 14.14382 | 121.10765 | 13884 ft | 393 kts | 187° |
| 2026-04-25 13:41 | 14.11638 | 121.10435 | 14499 ft | 397 kts | 187° |
| 2026-04-25 13:41 | 14.08895 | 121.10109 | 15078 ft | 401 kts | 187° |
| 2026-04-25 13:41 | 14.06100 | 121.09776 | 15650 ft | 404 kts | 187° |
| 2026-04-25 13:41 | 14.03278 | 121.09439 | 16210 ft | 408 kts | 187° |
| 2026-04-25 13:42 | 14.00418 | 121.09100 | 16704 ft | 408 kts | 187° |
| 2026-04-25 13:42 | 13.97586 | 121.08762 | 16992 ft | 413 kts | 187° |
| 2026-04-25 13:42 | 13.94656 | 121.08414 | 17460 ft | 417 kts | 187° |
| 2026-04-25 13:42 | 13.91746 | 121.08069 | 18005 ft | 419 kts | 187° |
| 2026-04-25 13:43 | 13.88853 | 121.07726 | 18541 ft | 421 kts | 187° |
| 2026-04-25 13:43 | 13.85927 | 121.07382 | 19069 ft | 423 kts | 187° |
| 2026-04-25 13:43 | 13.82994 | 121.07036 | 19582 ft | 425 kts | 187° |
| 2026-04-25 13:43 | 13.80036 | 121.06686 | 20083 ft | 427 kts | 187° |
| 2026-04-25 13:44 | 13.77067 | 121.06335 | 20563 ft | 429 kts | 187° |
| 2026-04-25 13:44 | 13.74054 | 121.05978 | 21050 ft | 431 kts | 187° |
| 2026-04-25 13:44 | 13.71023 | 121.05620 | 21542 ft | 433 kts | 187° |
| 2026-04-25 13:44 | 13.68000 | 121.05263 | 22020 ft | 434 kts | 188° |
| 2026-04-25 13:45 | 13.65003 | 121.04905 | 22473 ft | 436 kts | 188° |
| 2026-04-25 13:45 | 13.61941 | 121.04535 | 22934 ft | 438 kts | 187° |
| 2026-04-25 13:45 | 13.58892 | 121.04179 | 23320 ft | 441 kts | 187° |
| 2026-04-25 13:45 | 13.55815 | 121.03824 | 23695 ft | 444 kts | 187° |
| 2026-04-25 13:46 | 13.52692 | 121.03683 | 24044 ft | 450 kts | 177° |
| 2026-04-25 13:46 | 13.49620 | 121.04294 | 24462 ft | 454 kts | 163° |
| 2026-04-25 13:46 | 13.46733 | 121.05660 | 25010 ft | 456 kts | 150° |
| 2026-04-25 13:46 | 13.44085 | 121.07474 | 25570 ft | 455 kts | 147° |
| 2026-04-25 13:47 | 13.41479 | 121.09345 | 26040 ft | 455 kts | 147° |
| 2026-04-25 13:47 | 13.38875 | 121.11213 | 26497 ft | 455 kts | 147° |
| 2026-04-25 13:47 | 13.36272 | 121.13060 | 26969 ft | 455 kts | 147° |
| 2026-04-25 13:47 | 13.33660 | 121.14896 | 27428 ft | 455 kts | 147° |
| 2026-04-25 13:48 | 13.31039 | 121.16730 | 27834 ft | 456 kts | 147° |
| 2026-04-25 13:48 | 13.28397 | 121.18577 | 28203 ft | 458 kts | 147° |
| 2026-04-25 13:48 | 13.25736 | 121.20437 | 28573 ft | 460 kts | 147° |
| 2026-04-25 13:48 | 13.23082 | 121.22295 | 28902 ft | 462 kts | 147° |
| 2026-04-25 13:49 | 13.20428 | 121.24154 | 28947 ft | 463 kts | 147° |
| 2026-04-25 13:49 | 13.15978 | 121.27273 | 28573 ft | 460 kts | 147° |
| 2026-04-25 13:49 | 13.12440 | 121.29749 | 27106 ft | 470 kts | 147° |
| 2026-04-25 13:50 | 13.09714 | 121.31655 | 25960 ft | 476 kts | 147° |
| 2026-04-25 13:50 | 13.07099 | 121.33485 | 24999 ft | 478 kts | 147° |
| 2026-04-25 13:50 | 13.04354 | 121.35407 | 24049 ft | 477 kts | 147° |
| 2026-04-25 13:50 | 13.01643 | 121.37306 | 23376 ft | 470 kts | 146° |
| 2026-04-25 13:51 | 12.99836 | 121.38572 | 22988 ft | 465 kts | 146° |
| 2026-04-25 13:51 | 12.96329 | 121.41029 | 22223 ft | 455 kts | 146° |
| 2026-04-25 13:51 | 12.93712 | 121.42860 | 21648 ft | 448 kts | 146° |
| 2026-04-25 13:51 | 12.91156 | 121.44647 | 21062 ft | 443 kts | 146° |
| 2026-04-25 13:52 | 12.88597 | 121.46435 | 20465 ft | 438 kts | 146° |
| 2026-04-25 13:52 | 12.86088 | 121.48179 | 19876 ft | 434 kts | 146° |
| 2026-04-25 13:52 | 12.83613 | 121.49899 | 19293 ft | 429 kts | 146° |
| 2026-04-25 13:52 | 12.81112 | 121.51641 | 18696 ft | 425 kts | 146° |
| 2026-04-25 13:53 | 12.78690 | 121.53330 | 18108 ft | 421 kts | 146° |
| 2026-04-25 13:53 | 12.76284 | 121.55009 | 17532 ft | 418 kts | 145° |
| 2026-04-25 13:53 | 12.73875 | 121.56690 | 16956 ft | 414 kts | 145° |
| 2026-04-25 13:53 | 12.71495 | 121.58353 | 16386 ft | 410 kts | 145° |
| 2026-04-25 13:54 | 12.69195 | 121.59959 | 15827 ft | 390 kts | 145° |
| 2026-04-25 13:54 | 12.66986 | 121.61503 | 15296 ft | 368 kts | 146° |
| 2026-04-25 13:54 | 12.64914 | 121.62950 | 14797 ft | 348 kts | 146° |
| 2026-04-25 13:54 | 12.62951 | 121.64320 | 14322 ft | 332 kts | 146° |
| 2026-04-25 13:55 | 12.61045 | 121.65653 | 13859 ft | 329 kts | 146° |
| 2026-04-25 13:55 | 12.59773 | 121.66549 | 13547 ft | 327 kts | 146° |
| 2026-04-25 13:55 | 12.57278 | 121.68306 | 12978 ft | 325 kts | 146° |
| 2026-04-25 13:55 | 12.55423 | 121.69605 | 12604 ft | 322 kts | 146° |
| 2026-04-25 13:56 | 12.53573 | 121.70898 | 12242 ft | 320 kts | 146° |
| 2026-04-25 13:56 | 12.51724 | 121.72186 | 11829 ft | 319 kts | 146° |
| 2026-04-25 13:56 | 12.49911 | 121.73449 | 11396 ft | 317 kts | 145° |
| 2026-04-25 13:56 | 12.48074 | 121.74728 | 11023 ft | 314 kts | 145° |
| 2026-04-25 13:57 | 12.46286 | 121.75974 | 10724 ft | 310 kts | 145° |
| 2026-04-25 13:57 | 12.45676 | 121.76399 | 10647 ft | 310 kts | 145° |
| 2026-04-25 13:57 | 12.42697 | 121.78475 | 10325 ft | 310 kts | 145° |
| 2026-04-25 13:57 | 12.40920 | 121.79713 | 10174 ft | 309 kts | 144° |
| 2026-04-25 13:58 | 12.39122 | 121.80964 | 10045 ft | 308 kts | 144° |
| 2026-04-25 13:58 | 12.37293 | 121.82121 | 9802 ft | 310 kts | 150° |
| 2026-04-25 13:58 | 12.35328 | 121.83053 | 9451 ft | 307 kts | 158° |
| 2026-04-25 13:58 | 12.33318 | 121.83736 | 9103 ft | 303 kts | 162° |
| 2026-04-25 13:59 | 12.31275 | 121.84345 | 9000 ft | 303 kts | 162° |
| 2026-04-25 13:59 | 12.29231 | 121.84942 | 8992 ft | 305 kts | 162° |
| 2026-04-25 13:59 | 12.27185 | 121.85544 | 8989 ft | 305 kts | 162° |
| 2026-04-25 13:59 | 12.25117 | 121.86155 | 8988 ft | 305 kts | 162° |
| 2026-04-25 14:00 | 12.23752 | 121.86560 | 8988 ft | 305 kts | 162° |
| 2026-04-25 14:00 | 12.21037 | 121.87367 | 8986 ft | 304 kts | 162° |
| 2026-04-25 14:00 | 12.18987 | 121.87975 | 8972 ft | 302 kts | 162° |
| 2026-04-25 14:00 | 12.16978 | 121.88572 | 8687 ft | 299 kts | 162° |
| 2026-04-25 14:01 | 12.14947 | 121.89174 | 8231 ft | 299 kts | 161° |
| 2026-04-25 14:01 | 12.12960 | 121.89764 | 7835 ft | 297 kts | 161° |
| 2026-04-25 14:01 | 12.10938 | 121.90364 | 7446 ft | 295 kts | 160° |
| 2026-04-25 14:01 | 12.08991 | 121.90943 | 7220 ft | 290 kts | 160° |
| 2026-04-25 14:02 | 12.07032 | 121.91528 | 7111 ft | 292 kts | 160° |
| 2026-04-25 14:02 | 12.05074 | 121.92111 | 7018 ft | 290 kts | 160° |
| 2026-04-25 14:02 | 12.03103 | 121.92519 | 6666 ft | 293 kts | 177° |
| 2026-04-25 14:02 | 12.02418 | 121.92459 | 6502 ft | 296 kts | 188° |
| 2026-04-25 14:03 | 11.99714 | 121.90382 | 5993 ft | 306 kts | 244° |
| 2026-04-25 14:03 | 11.99330 | 121.88238 | 5980 ft | 310 kts | 277° |
| 2026-04-25 14:03 | 12.00084 | 121.86192 | 5975 ft | 305 kts | 310° |
| 2026-04-25 14:03 | 12.01705 | 121.84847 | 5973 ft | 295 kts | 341° |
| 2026-04-25 14:04 | 12.03656 | 121.84285 | 5983 ft | 292 kts | 351° |
| 2026-04-25 14:04 | 12.05659 | 121.83791 | 5984 ft | 293 kts | 350° |
| 2026-04-25 14:04 | 12.07651 | 121.83255 | 5985 ft | 293 kts | 349° |
| 2026-04-25 14:04 | 12.09633 | 121.82684 | 5985 ft | 293 kts | 349° |
| 2026-04-25 14:05 | 12.11608 | 121.82495 | 5962 ft | 282 kts | 15° |
| 2026-04-25 14:05 | 12.13337 | 121.83366 | 5975 ft | 271 kts | 47° |
| 2026-04-25 14:05 | 12.14352 | 121.84955 | 5983 ft | 267 kts | 72° |
| 2026-04-25 14:05 | 12.14549 | 121.86823 | 5986 ft | 267 kts | 97° |
| 2026-04-25 14:06 | 12.13890 | 121.88606 | 5985 ft | 272 kts | 122° |
| 2026-04-25 14:06 | 12.12470 | 121.89904 | 5985 ft | 280 kts | 149° |
| 2026-04-25 14:06 | 12.10593 | 121.90546 | 5992 ft | 285 kts | 160° |
| 2026-04-25 14:06 | 12.08654 | 121.91088 | 5987 ft | 285 kts | 160° |
| 2026-04-25 14:07 | 12.06728 | 121.91640 | 5985 ft | 285 kts | 160° |
| 2026-04-25 14:07 | 12.04829 | 121.92188 | 5983 ft | 284 kts | 160° |
| 2026-04-25 14:07 | 12.02864 | 121.92591 | 5744 ft | 287 kts | 176° |
| 2026-04-25 14:07 | 12.00918 | 121.92048 | 5266 ft | 299 kts | 209° |
| 2026-04-25 14:08 | 11.99498 | 121.90505 | 4836 ft | 304 kts | 242° |
| 2026-04-25 14:08 | 11.99067 | 121.88393 | 4404 ft | 303 kts | 277° |
| 2026-04-25 14:08 | 11.99756 | 121.86401 | 4058 ft | 293 kts | 308° |
| 2026-04-25 14:08 | 12.01218 | 121.85017 | 3989 ft | 285 kts | 335° |
| 2026-04-25 14:09 | 12.03082 | 121.84360 | 3989 ft | 281 kts | 351° |
| 2026-04-25 14:09 | 12.05002 | 121.83895 | 3986 ft | 281 kts | 350° |
| 2026-04-25 14:09 | 12.06947 | 121.83611 | 3965 ft | 274 kts | 9° |
| 2026-04-25 14:09 | 12.07551 | 121.83718 | 3964 ft | 270 kts | 20° |
| 2026-04-25 14:10 | 12.09732 | 121.85799 | 3983 ft | 259 kts | 69° |
| 2026-04-25 14:10 | 12.10071 | 121.87600 | 3985 ft | 261 kts | 91° |
| 2026-04-25 14:10 | 12.09650 | 121.89399 | 3985 ft | 265 kts | 114° |
| 2026-04-25 14:10 | 12.08486 | 121.90871 | 3984 ft | 271 kts | 139° |
| 2026-04-25 14:11 | 12.06724 | 121.91708 | 3993 ft | 280 kts | 160° |
| 2026-04-25 14:11 | 12.04833 | 121.92225 | 3989 ft | 280 kts | 160° |
| 2026-04-25 14:11 | 12.02913 | 121.92597 | 3973 ft | 286 kts | 176° |
| 2026-04-25 14:11 | 12.00979 | 121.92023 | 3973 ft | 295 kts | 210° |
| 2026-04-25 14:12 | 11.99598 | 121.90457 | 3972 ft | 301 kts | 244° |
| 2026-04-25 14:12 | 11.99219 | 121.88380 | 3971 ft | 300 kts | 277° |
| 2026-04-25 14:12 | 11.99646 | 121.86289 | 3985 ft | 301 kts | 283° |
| 2026-04-25 14:12 | 11.99701 | 121.84126 | 3980 ft | 303 kts | 258° |
| 2026-04-25 14:13 | 11.98886 | 121.82163 | 3982 ft | 301 kts | 232° |
| 2026-04-25 14:13 | 11.97450 | 121.80659 | 3979 ft | 288 kts | 219° |
| 2026-04-25 14:13 | 11.96025 | 121.79308 | 3967 ft | 265 kts | 223° |
| 2026-04-25 14:13 | 11.94815 | 121.77967 | 3963 ft | 248 kts | 227° |
| 2026-04-25 14:14 | 11.93743 | 121.76604 | 3970 ft | 247 kts | 231° |
| 2026-04-25 14:14 | 11.92751 | 121.75230 | 3969 ft | 226 kts | 232° |
| 2026-04-25 14:14 | 11.91785 | 121.74005 | 4033 ft | 215 kts | 216° |
| 2026-04-25 14:14 | 11.90454 | 121.73473 | 3992 ft | 201 kts | 177° |
| 2026-04-25 14:15 | 11.89138 | 121.73777 | 3991 ft | 190 kts | 148° |
| 2026-04-25 14:15 | 11.88726 | 121.73990 | 3997 ft | 190 kts | 146° |
| 2026-04-25 14:15 | 11.86788 | 121.75066 | 3923 ft | 190 kts | 145° |
| 2026-04-25 14:15 | 11.85611 | 121.75708 | 3821 ft | 190 kts | 146° |
| 2026-04-25 14:16 | 11.84492 | 121.76411 | 3627 ft | 184 kts | 130° |
| 2026-04-25 14:16 | 11.83926 | 121.77527 | 3414 ft | 175 kts | 97° |
| 2026-04-25 14:16 | 11.84043 | 121.78725 | 3235 ft | 172 kts | 70° |
| 2026-04-25 14:16 | 11.84572 | 121.79836 | 3077 ft | 173 kts | 62° |
| 2026-04-25 14:17 | 11.85175 | 121.80908 | 2893 ft | 173 kts | 62° |
| 2026-04-25 14:17 | 11.85756 | 121.81986 | 2707 ft | 171 kts | 63° |
| 2026-04-25 14:17 | 11.86299 | 121.83041 | 2516 ft | 163 kts | 63° |
| 2026-04-25 14:17 | 11.86806 | 121.84054 | 2336 ft | 154 kts | 64° |
| 2026-04-25 14:18 | 11.87277 | 121.85000 | 2117 ft | 143 kts | 64° |
| 2026-04-25 14:18 | 11.87709 | 121.85871 | 1964 ft | 135 kts | 64° |
| 2026-04-25 14:18 | 11.87991 | 121.86439 | 1841 ft | 134 kts | 64° |
| 2026-04-25 14:18 | 11.88556 | 121.87574 | 1599 ft | 133 kts | 64° |
| 2026-04-25 14:19 | 11.88974 | 121.88411 | 1418 ft | 132 kts | 64° |
| 2026-04-25 14:19 | 11.89392 | 121.89249 | 1249 ft | 132 kts | 64° |
| 2026-04-25 14:19 | 11.89808 | 121.90085 | 1072 ft | 131 kts | 63° |
| 2026-04-25 14:19 | 11.90227 | 121.90917 | 909 ft | 131 kts | 63° |
| 2026-04-25 14:20 | 11.90633 | 121.91743 | 728 ft | 131 kts | 64° |
| 2026-04-25 14:20 | 11.90766 | 121.92017 | 658 ft | 130 kts | 64° |
| 2026-04-25 14:20 | 11.91457 | 121.93393 | 404 ft | 130 kts | 63° |
| 2026-04-25 14:20 | 11.91865 | 121.94210 | 204 ft | 128 kts | 63° |
| 2026-04-25 14:21 | 11.92136 | 121.94756 | 79 ft | 126 kts | 63° |
| 2026-04-25 14:21 | 11.92596 | 121.95682 | 13 ft | 67 kts | 63° |
| 2026-04-25 14:21 | 11.92714 | 121.95919 | 13 ft | 26 kts | 63° |
| 2026-04-25 14:21 | 11.92773 | 121.96035 | 12 ft | 13 kts | 63° |
| 2026-04-25 14:22 | 11.92800 | 121.96108 | 13 ft | 7 kts | 106° |
| 2026-04-25 14:22 | 11.92755 | 121.96145 | 12 ft | 9 kts | 153° |
| 2026-04-25 14:22 | 11.92713 | 121.96167 | 12 ft | 6 kts | 152° |
| 2026-04-25 14:22 | 11.92666 | 121.96192 | 13 ft | 8 kts | 152° |
| 2026-04-25 14:23 | 11.92631 | 121.96221 | 13 ft | 5 kts | 104° |
| 2026-04-25 14:23 | 11.92644 | 121.96259 | 12 ft | 4 kts | 61° |
| 2026-04-25 14:23 | 11.92655 | 121.96282 | 12 ft | 2 kts | 79° |
| 2026-04-25 14:23 | 11.92650 | 121.96294 | 13 ft | 1 kts | 142° |
| 2026-04-25 14:24 | 11.92639 | 121.96301 | 13 ft | 1 kts | 150° |
| 2026-04-25 14:24 | 11.92629 | 121.96307 | 13 ft | 1 kts | 152° |
| 2026-04-25 14:24 | 11.92620 | 121.96311 | 13 ft | 0 kts | 152° |
| 2026-04-25 14:24 | 11.92619 | 121.96311 | 13 ft | 0 kts | 152° |